Panda — PBCS — position and weather

sailwx.info

Track history (hours):
 
Tides and Currents Weather Stations Pressure Air Temp Water Temp Dewpoint Dewpoint Depression Visibility Wind Speed Wind Dir Waves Ship Positions

Panda

Last reported at 2016-Jul-30 08:33 UTC. Time now 2016-Jul-30 09:14 UTC.
Position N 51°58' E 004°02'.

Length 89 m; draft 3.1 m.

Type: Cargo ship. MMSI: 245014000.

Date/timePositionNaut miles runAvg speedWind from/ knotsBaromVisibWave heightAir tempDewpointWater temp
2016-Jul-30 08:33N 51°58' E 004°02'0 0.0
2016-Jul-30 07:33N 51°58' E 004°02'0 0.0
2016-Jul-30 06:30N 51°58' E 004°02'0 0.0
2016-Jul-30 05:33N 51°58' E 004°02'0 0.0
2016-Jul-30 04:33N 51°58' E 004°02'0 0.0
2016-Jul-30 03:30N 51°58' E 004°02'0 0.0
2016-Jul-30 02:33N 51°58' E 004°02'0 0.0
2016-Jul-30 01:33N 51°58' E 004°02'0 0.0
2016-Jul-30 00:33N 51°58' E 004°02'0 0.0
2016-Jul-29 23:33N 51°58' E 004°02'0 0.0
2016-Jul-29 22:27N 51°58' E 004°02'0 0.0
2016-Jul-29 21:33N 51°58' E 004°02'0 0.0
2016-Jul-29 20:33N 51°58' E 004°02'0 0.0
2016-Jul-29 19:33N 51°58' E 004°02'0 0.0
2016-Jul-29 18:33N 51°58' E 004°02'0 0.0
2016-Jul-29 17:27N 51°58' E 004°02'0 0.0
2016-Jul-29 16:33N 51°58' E 004°02'7 6.8
2016-Jul-29 15:34N 51°55' E 004°12'1110.7
2016-Jul-29 14:30N 51°50' E 004°28'9 8.7
2016-Jul-29 13:28N 51°43' E 004°37'9 9.4
2016-Jul-29 12:33N 51°43' E 004°51'1 0.1
2016-Jul-29 02:33N 51°43' E 004°54'0 0.0
2016-Jul-29 01:27N 51°43' E 004°54'0 0.2
2016-Jul-28 23:27N 51°43' E 004°53'8 8.6
2016-Jul-28 22:33N 51°44' E 004°41'9 9.1
2016-Jul-28 21:33N 51°49' E 004°53'18 8.9
2016-Jul-28 19:33N 51°48' E 005°22'46 9.2
2016-Jul-28 14:30N 51°40' E 006°35'6 0.4
2016-Jul-27 23:34N 51°34' E 006°41'5 4.6
2016-Jul-27 22:33N 51°37' E 006°35'46 5.5
2016-Jul-27 14:10N 51°50' E 005°24'19 7.1
2016-Jul-27 11:32N 51°49' E 004°54'8 8.5
2016-Jul-27 10:33N 51°50' E 004°40'9 8.7
2016-Jul-27 09:33N 51°54' E 004°28'2 1.7
2016-Jul-27 08:31N 51°54' E 004°25'0 0.0
2016-Jul-27 07:28N 51°54' E 004°25'0 0.0
2016-Jul-27 06:34N 51°54' E 004°25'0 0.0
2016-Jul-27 05:34N 51°54' E 004°25'1 0.7
2016-Jul-27 04:33N 51°54' E 004°26'1 1.4
2016-Jul-27 03:32N 51°54' E 004°28'0 0.0
2016-Jul-27 02:32N 51°54' E 004°28'0 0.0
2016-Jul-27 01:32N 51°54' E 004°28'0 0.0
2016-Jul-27 00:32N 51°54' E 004°28'0 0.0
2016-Jul-26 23:32N 51°54' E 004°28'0 0.0
2016-Jul-26 22:32N 51°54' E 004°28'0 0.0
2016-Jul-26 21:32N 51°54' E 004°28'0 0.0
2016-Jul-26 20:32N 51°54' E 004°28'0 0.0
2016-Jul-26 19:32N 51°54' E 004°28'0 0.0
2016-Jul-26 18:32N 51°54' E 004°28'0 0.0
2016-Jul-26 17:29N 51°54' E 004°28'6 6.1
2016-Jul-26 16:34N 51°54' E 004°19'9 8.6
2016-Jul-26 15:34N 51°58' E 004°07'8 8.4
2016-Jul-26 14:34N 52°00' E 003°54'8 8.4
2016-Jul-26 13:33N 52°07' E 003°46'1110.8
2016-Jul-26 12:33N 52°18' E 003°47'1210.9
2016-Jul-26 11:28N 52°29' E 003°50'910.0
2016-Jul-26 10:33N 52°38' E 003°54'9 9.3
2016-Jul-26 09:34N 52°47' E 003°57'9 8.6
2016-Jul-26 08:34N 52°56' E 004°00'8 8.2
2016-Jul-26 07:33N 53°01' E 004°10'9 8.9
2016-Jul-26 06:33N 53°07' E 004°21'9 8.8
2016-Jul-26 05:32N 53°15' E 004°29'18 9.0
2016-Jul-26 03:28N 53°30' E 004°46'9 9.4
2016-Jul-26 02:33N 53°34' E 004°59'9 8.9
2016-Jul-26 01:33N 53°37' E 005°13'8 7.6
2016-Jul-26 00:33N 53°39' E 005°26'7 7.0
2016-Jul-25 23:32N 53°41' E 005°37'7 7.2
2016-Jul-25 22:34N 53°44' E 005°48'8 7.6
2016-Jul-25 21:34N 53°46' E 006°00'8 8.4
2016-Jul-25 20:33N 53°49' E 006°14'9 9.2
2016-Jul-25 19:34N 53°52' E 006°28'10 9.7
2016-Jul-25 18:33N 53°54' E 006°44'9 9.5
2016-Jul-25 17:33N 53°56' E 006°60'10 9.9
2016-Jul-25 16:32N 53°58' E 007°17'9 9.4
2016-Jul-25 15:33N 54°00' E 007°32'8 8.4
2016-Jul-25 14:33N 54°02' E 007°46'8 8.0
2016-Jul-25 13:34N 54°02' E 007°59'7 7.3
2016-Jul-25 12:33N 54°01' E 008°12'7 7.2
2016-Jul-25 11:33N 53°60' E 008°24'8 7.6
2016-Jul-25 10:34N 53°58' E 008°36'1010.3
2016-Jul-25 09:33N 53°51' E 008°49'1212.0
2016-Jul-25 08:34N 53°53' E 009°08'4 4.0
2016-Jul-25 07:33N 53°56' E 009°13'8 7.6
2016-Jul-25 06:34N 54°03' E 009°18'6 6.2
2016-Jul-25 05:33N 54°09' E 009°22'2 1.7
2016-Jul-25 04:14N 54°10' E 009°25'6 8.2
2016-Jul-25 03:32N 54°12' E 009°34'8 7.9
2016-Jul-25 02:34N 54°18' E 009°43'6 6.1
2016-Jul-25 01:34N 54°22' E 009°51'7 7.0
2016-Jul-25 00:34N 54°22' E 010°03'4 3.6
2016-Jul-24 23:34N 54°22' E 010°09'4 4.4
2016-Jul-24 22:34N 54°26' E 010°13'9 9.3
2016-Jul-24 21:33N 54°32' E 010°25'10 9.6
2016-Jul-24 20:34N 54°35' E 010°41'1010.1
2016-Jul-24 19:34N 54°36' E 010°58'1110.8
2016-Jul-24 18:34N 54°35' E 011°17'1110.8
2016-Jul-24 17:34N 54°30' E 011°33'1110.7
2016-Jul-24 16:34N 54°26' E 011°50'1010.3
2016-Jul-24 15:34N 54°27' E 012°08'9 9.3
2016-Jul-24 14:34N 54°32' E 012°21'1010.4
2016-Jul-24 13:34N 54°35' E 012°39'1111.0
2016-Jul-24 12:34N 54°38' E 012°57'1110.5
2016-Jul-24 11:33N 54°42' E 013°14'1010.0
2016-Jul-24 10:31N 54°43' E 013°31'1010.2
2016-Jul-24 09:33N 54°41' E 013°48'1010.3
2016-Jul-24 08:33N 54°40' E 014°06'1110.6
2016-Jul-24 07:33N 54°38' E 014°24'1311.0
2016-Jul-24 06:24N 54°39' E 014°46'910.3
2016-Jul-24 05:33N 54°41' E 015°01'6110.0
2016-Jul-23 23:23N 54°50' E 016°46'1910.1
2016-Jul-23 21:30N 54°55' E 017°18'2010.1
2016-Jul-23 19:30N 54°54' E 017°53'910.0
2016-Jul-23 18:34N 54°54' E 018°09'1010.0
2016-Jul-23 17:34N 54°54' E 018°27'1010.2
2016-Jul-23 16:34N 54°52' E 018°44'1010.0
2016-Jul-23 15:34N 54°50' E 019°01'1010.0
2016-Jul-23 14:34N 54°47' E 019°18'10 9.9
2016-Jul-23 13:33N 54°44' E 019°34'10 9.7
2016-Jul-23 12:33N 54°40' E 019°49'8 8.5
2016-Jul-23 11:34N 54°39' E 020°04'0 0.0
2016-Jul-22 01:33N 54°39' E 020°03'9 9.2
2016-Jul-22 00:33N 54°40' E 019°48'1211.7
2016-Jul-21 23:33N 54°45' E 019°29'1211.8
2016-Jul-21 22:33N 54°49' E 019°10'1211.7
2016-Jul-21 21:33N 54°53' E 018°50'1110.8
2016-Jul-21 20:33N 54°54' E 018°32'1111.3
2016-Jul-21 19:33N 54°54' E 018°12'1111.3
2016-Jul-21 18:33N 54°53' E 017°53'1111.3
2016-Jul-21 17:33N 54°53' E 017°33'1111.4
2016-Jul-21 16:33N 54°52' E 017°13'1211.5
2016-Jul-21 15:32N 54°49' E 016°53'1211.6
2016-Jul-21 14:28N 54°46' E 016°32'1211.8
2016-Jul-21 13:27N 54°45' E 016°12'1111.8
2016-Jul-21 12:33N 54°43' E 015°54'1211.7
2016-Jul-21 11:33N 54°41' E 015°33'1211.9
2016-Jul-21 10:33N 54°39' E 015°13'1211.8
2016-Jul-21 09:33N 54°38' E 014°53'1211.5
2016-Jul-21 08:33N 54°36' E 014°33'1111.0
2016-Jul-21 07:33N 54°37' E 014°14'1110.9
2016-Jul-21 06:33N 54°39' E 013°56'1111.1
2016-Jul-21 05:33N 54°41' E 013°37'1010.3
2016-Jul-21 04:33N 54°42' E 013°19'1010.4
2016-Jul-21 03:33N 54°39' E 013°02'1010.3
2016-Jul-21 02:33N 54°36' E 012°45'1110.7
2016-Jul-21 01:33N 54°33' E 012°27'10 9.5
2016-Jul-21 00:33N 54°27' E 012°14'9 9.3
2016-Jul-20 23:33N 54°24' E 011°59'1010.0
2016-Jul-20 22:33N 54°26' E 011°42'1110.6
2016-Jul-20 21:33N 54°30' E 011°25'10 9.7
2016-Jul-20 20:33N 54°33' E 011°09'10 9.7
2016-Jul-20 19:33N 54°34' E 010°53'1111.0
2016-Jul-20 18:33N 54°32' E 010°34'1110.8
2016-Jul-20 17:33N 54°28' E 010°17'8 8.0
2016-Jul-20 16:33N 54°22' E 010°09'1 1.1
2016-Jul-20 15:33N 54°22' E 010°07'8 7.9
2016-Jul-20 14:33N 54°21' E 009°53'18 7.2
2016-Jul-20 12:05N 54°11' E 009°28'5 7.2
2016-Jul-20 11:26N 54°09' E 009°21'4 4.9
2016-Jul-20 10:33N 54°05' E 009°19'2 2.0
2016-Jul-20 09:33N 54°03' E 009°18'4 4.4
2016-Jul-20 08:33N 53°58' E 009°16'  
Track history (hours):
 
Tides and Currents Weather Stations Pressure Air Temp Water Temp Dewpoint Dewpoint Depression Visibility Wind Speed Wind Dir Waves Ship Positions

Panda

Last reported at 2016-Jul-30 08:33 UTC. Time now 2016-Jul-30 09:14 UTC.
Position N 51°58' E 004°02'.

Length 89 m; draft 3.1 m.

Type: Cargo ship. MMSI: 245014000.

Date/timePositionNaut miles runAvg speedWind from/ knotsBaromVisibWave heightAir tempDewpointWater temp
2016-Jul-30 08:33N 51°58' E 004°02'0 0.0
2016-Jul-30 07:33N 51°58' E 004°02'0 0.0
2016-Jul-30 06:30N 51°58' E 004°02'0 0.0
2016-Jul-30 05:33N 51°58' E 004°02'0 0.0
2016-Jul-30 04:33N 51°58' E 004°02'0 0.0
2016-Jul-30 03:30N 51°58' E 004°02'0 0.0
2016-Jul-30 02:33N 51°58' E 004°02'0 0.0
2016-Jul-30 01:33N 51°58' E 004°02'0 0.0
2016-Jul-30 00:33N 51°58' E 004°02'0 0.0
2016-Jul-29 23:33N 51°58' E 004°02'0 0.0
2016-Jul-29 22:27N 51°58' E 004°02'0 0.0
2016-Jul-29 21:33N 51°58' E 004°02'0 0.0
2016-Jul-29 20:33N 51°58' E 004°02'0 0.0
2016-Jul-29 19:33N 51°58' E 004°02'0 0.0
2016-Jul-29 18:33N 51°58' E 004°02'0 0.0
2016-Jul-29 17:27N 51°58' E 004°02'0 0.0
2016-Jul-29 16:33N 51°58' E 004°02'7 6.8
2016-Jul-29 15:34N 51°55' E 004°12'1110.7
2016-Jul-29 14:30N 51°50' E 004°28'9 8.7
2016-Jul-29 13:28N 51°43' E 004°37'9 9.4
2016-Jul-29 12:33N 51°43' E 004°51'1 0.1
2016-Jul-29 02:33N 51°43' E 004°54'0 0.0
2016-Jul-29 01:27N 51°43' E 004°54'0 0.2
2016-Jul-28 23:27N 51°43' E 004°53'8 8.6
2016-Jul-28 22:33N 51°44' E 004°41'9 9.1
2016-Jul-28 21:33N 51°49' E 004°53'18 8.9
2016-Jul-28 19:33N 51°48' E 005°22'46 9.2
2016-Jul-28 14:30N 51°40' E 006°35'6 0.4
2016-Jul-27 23:34N 51°34' E 006°41'5 4.6
2016-Jul-27 22:33N 51°37' E 006°35'46 5.5
2016-Jul-27 14:10N 51°50' E 005°24'19 7.1
2016-Jul-27 11:32N 51°49' E 004°54'8 8.5
2016-Jul-27 10:33N 51°50' E 004°40'9 8.7
2016-Jul-27 09:33N 51°54' E 004°28'2 1.7
2016-Jul-27 08:31N 51°54' E 004°25'0 0.0
2016-Jul-27 07:28N 51°54' E 004°25'0 0.0
2016-Jul-27 06:34N 51°54' E 004°25'0 0.0
2016-Jul-27 05:34N 51°54' E 004°25'1 0.7
2016-Jul-27 04:33N 51°54' E 004°26'1 1.4
2016-Jul-27 03:32N 51°54' E 004°28'0 0.0
2016-Jul-27 02:32N 51°54' E 004°28'0 0.0
2016-Jul-27 01:32N 51°54' E 004°28'0 0.0
2016-Jul-27 00:32N 51°54' E 004°28'0 0.0
2016-Jul-26 23:32N 51°54' E 004°28'0 0.0
2016-Jul-26 22:32N 51°54' E 004°28'0 0.0
2016-Jul-26 21:32N 51°54' E 004°28'0 0.0
2016-Jul-26 20:32N 51°54' E 004°28'0 0.0
2016-Jul-26 19:32N 51°54' E 004°28'0 0.0
2016-Jul-26 18:32N 51°54' E 004°28'0 0.0
2016-Jul-26 17:29N 51°54' E 004°28'6 6.1
2016-Jul-26 16:34N 51°54' E 004°19'9 8.6
2016-Jul-26 15:34N 51°58' E 004°07'8 8.4
2016-Jul-26 14:34N 52°00' E 003°54'8 8.4
2016-Jul-26 13:33N 52°07' E 003°46'1110.8
2016-Jul-26 12:33N 52°18' E 003°47'1210.9
2016-Jul-26 11:28N 52°29' E 003°50'910.0
2016-Jul-26 10:33N 52°38' E 003°54'9 9.3
2016-Jul-26 09:34N 52°47' E 003°57'9 8.6
2016-Jul-26 08:34N 52°56' E 004°00'8 8.2
2016-Jul-26 07:33N 53°01' E 004°10'9 8.9
2016-Jul-26 06:33N 53°07' E 004°21'9 8.8
2016-Jul-26 05:32N 53°15' E 004°29'18 9.0
2016-Jul-26 03:28N 53°30' E 004°46'9 9.4
2016-Jul-26 02:33N 53°34' E 004°59'9 8.9
2016-Jul-26 01:33N 53°37' E 005°13'8 7.6
2016-Jul-26 00:33N 53°39' E 005°26'7 7.0
2016-Jul-25 23:32N 53°41' E 005°37'7 7.2
2016-Jul-25 22:34N 53°44' E 005°48'8 7.6
2016-Jul-25 21:34N 53°46' E 006°00'8 8.4
2016-Jul-25 20:33N 53°49' E 006°14'9 9.2
2016-Jul-25 19:34N 53°52' E 006°28'10 9.7
2016-Jul-25 18:33N 53°54' E 006°44'9 9.5
2016-Jul-25 17:33N 53°56' E 006°60'10 9.9
2016-Jul-25 16:32N 53°58' E 007°17'9 9.4
2016-Jul-25 15:33N 54°00' E 007°32'8 8.4
2016-Jul-25 14:33N 54°02' E 007°46'8 8.0
2016-Jul-25 13:34N 54°02' E 007°59'7 7.3
2016-Jul-25 12:33N 54°01' E 008°12'7 7.2
2016-Jul-25 11:33N 53°60' E 008°24'8 7.6
2016-Jul-25 10:34N 53°58' E 008°36'1010.3
2016-Jul-25 09:33N 53°51' E 008°49'1212.0
2016-Jul-25 08:34N 53°53' E 009°08'4 4.0
2016-Jul-25 07:33N 53°56' E 009°13'8 7.6
2016-Jul-25 06:34N 54°03' E 009°18'6 6.2
2016-Jul-25 05:33N 54°09' E 009°22'2 1.7
2016-Jul-25 04:14N 54°10' E 009°25'6 8.2
2016-Jul-25 03:32N 54°12' E 009°34'8 7.9
2016-Jul-25 02:34N 54°18' E 009°43'6 6.1
2016-Jul-25 01:34N 54°22' E 009°51'7 7.0
2016-Jul-25 00:34N 54°22' E 010°03'4 3.6
2016-Jul-24 23:34N 54°22' E 010°09'4 4.4
2016-Jul-24 22:34N 54°26' E 010°13'9 9.3
2016-Jul-24 21:33N 54°32' E 010°25'10 9.6
2016-Jul-24 20:34N 54°35' E 010°41'1010.1
2016-Jul-24 19:34N 54°36' E 010°58'1110.8
2016-Jul-24 18:34N 54°35' E 011°17'1110.8
2016-Jul-24 17:34N 54°30' E 011°33'1110.7
2016-Jul-24 16:34N 54°26' E 011°50'1010.3
2016-Jul-24 15:34N 54°27' E 012°08'9 9.3
2016-Jul-24 14:34N 54°32' E 012°21'1010.4
2016-Jul-24 13:34N 54°35' E 012°39'1111.0
2016-Jul-24 12:34N 54°38' E 012°57'1110.5
2016-Jul-24 11:33N 54°42' E 013°14'1010.0
2016-Jul-24 10:31N 54°43' E 013°31'1010.2
2016-Jul-24 09:33N 54°41' E 013°48'1010.3
2016-Jul-24 08:33N 54°40' E 014°06'1110.6
2016-Jul-24 07:33N 54°38' E 014°24'1311.0
2016-Jul-24 06:24N 54°39' E 014°46'910.3
2016-Jul-24 05:33N 54°41' E 015°01'6110.0
2016-Jul-23 23:23N 54°50' E 016°46'1910.1
2016-Jul-23 21:30N 54°55' E 017°18'2010.1
2016-Jul-23 19:30N 54°54' E 017°53'910.0
2016-Jul-23 18:34N 54°54' E 018°09'1010.0
2016-Jul-23 17:34N 54°54' E 018°27'1010.2
2016-Jul-23 16:34N 54°52' E 018°44'1010.0
2016-Jul-23 15:34N 54°50' E 019°01'1010.0
2016-Jul-23 14:34N 54°47' E 019°18'10 9.9
2016-Jul-23 13:33N 54°44' E 019°34'10 9.7
2016-Jul-23 12:33N 54°40' E 019°49'8 8.5
2016-Jul-23 11:34N 54°39' E 020°04'0 0.0
2016-Jul-22 01:33N 54°39' E 020°03'9 9.2
2016-Jul-22 00:33N 54°40' E 019°48'1211.7
2016-Jul-21 23:33N 54°45' E 019°29'1211.8
2016-Jul-21 22:33N 54°49' E 019°10'1211.7
2016-Jul-21 21:33N 54°53' E 018°50'1110.8
2016-Jul-21 20:33N 54°54' E 018°32'1111.3
2016-Jul-21 19:33N 54°54' E 018°12'1111.3
2016-Jul-21 18:33N 54°53' E 017°53'1111.3
2016-Jul-21 17:33N 54°53' E 017°33'1111.4
2016-Jul-21 16:33N 54°52' E 017°13'1211.5
2016-Jul-21 15:32N 54°49' E 016°53'1211.6
2016-Jul-21 14:28N 54°46' E 016°32'1211.8
2016-Jul-21 13:27N 54°45' E 016°12'1111.8
2016-Jul-21 12:33N 54°43' E 015°54'1211.7
2016-Jul-21 11:33N 54°41' E 015°33'1211.9
2016-Jul-21 10:33N 54°39' E 015°13'1211.8
2016-Jul-21 09:33N 54°38' E 014°53'1211.5
2016-Jul-21 08:33N 54°36' E 014°33'1111.0
2016-Jul-21 07:33N 54°37' E 014°14'1110.9
2016-Jul-21 06:33N 54°39' E 013°56'1111.1
2016-Jul-21 05:33N 54°41' E 013°37'1010.3
2016-Jul-21 04:33N 54°42' E 013°19'1010.4
2016-Jul-21 03:33N 54°39' E 013°02'1010.3
2016-Jul-21 02:33N 54°36' E 012°45'1110.7
2016-Jul-21 01:33N 54°33' E 012°27'10 9.5
2016-Jul-21 00:33N 54°27' E 012°14'9 9.3
2016-Jul-20 23:33N 54°24' E 011°59'1010.0
2016-Jul-20 22:33N 54°26' E 011°42'1110.6
2016-Jul-20 21:33N 54°30' E 011°25'10 9.7
2016-Jul-20 20:33N 54°33' E 011°09'10 9.7
2016-Jul-20 19:33N 54°34' E 010°53'1111.0
2016-Jul-20 18:33N 54°32' E 010°34'1110.8
2016-Jul-20 17:33N 54°28' E 010°17'8 8.0
2016-Jul-20 16:33N 54°22' E 010°09'1 1.1
2016-Jul-20 15:33N 54°22' E 010°07'8 7.9
2016-Jul-20 14:33N 54°21' E 009°53'18 7.2
2016-Jul-20 12:05N 54°11' E 009°28'5 7.2
2016-Jul-20 11:26N 54°09' E 009°21'4 4.9
2016-Jul-20 10:33N 54°05' E 009°19'2 2.0
2016-Jul-20 09:33N 54°03' E 009°18'4 4.4
2016-Jul-20 08:33N 53°58' E 009°16'  

Dump ship's entire track history